createdAt,value
2022-08-08T00:00:52.595Z,3.20
2022-08-08T00:06:08.031Z,3.10
2022-08-08T00:08:52.097Z,4.20
2022-08-08T00:12:07.320Z,3.50
2022-08-08T00:15:00.320Z,3.70
2022-08-08T00:18:04.525Z,3.80
2022-08-08T00:20:44.586Z,3.90
2022-08-08T00:23:28.329Z,3.90
2022-08-08T00:26:13.055Z,3.70
2022-08-08T00:28:48.793Z,4.00
2022-08-08T00:32:28.804Z,4.30
2022-08-08T00:34:46.230Z,4.10
2022-08-08T00:38:01.488Z,3.60
2022-08-08T00:41:11.863Z,3.60
2022-08-08T00:44:01.204Z,3.90
2022-08-08T00:46:57.820Z,3.40
2022-08-08T00:49:58.940Z,3.50
2022-08-08T00:52:56.515Z,3.20
2022-08-08T00:55:53.320Z,3.00
2022-08-08T00:59:43.266Z,3.70
2022-08-08T01:03:57.951Z,3.20
2022-08-08T01:06:27.401Z,3.70
2022-08-08T01:09:42.442Z,3.10
2022-08-08T01:12:29.769Z,3.50
2022-08-08T01:15:47.078Z,4.30
2022-08-08T01:18:53.442Z,3.20
2022-08-08T01:22:23.149Z,3.10
2022-08-08T01:25:18.735Z,3.40
2022-08-08T01:28:17.929Z,3.40
2022-08-08T01:32:02.856Z,3.80
2022-08-08T01:35:01.472Z,3.60
2022-08-08T01:38:10.788Z,3.50
2022-08-08T01:41:26.960Z,3.00
2022-08-08T01:44:31.896Z,3.10
2022-08-08T01:48:14.692Z,3.50
2022-08-08T01:50:19.970Z,4.00
2022-08-08T01:55:17.290Z,4.10
2022-08-08T01:56:47.305Z,3.60
2022-08-08T02:00:02.400Z,3.60
2022-08-08T02:03:55.857Z,3.60
2022-08-08T02:06:32.618Z,2.70
2022-08-08T02:09:18.576Z,2.60
2022-08-08T02:12:18.613Z,3.20
2022-08-08T02:15:39.033Z,2.80
2022-08-08T02:18:36.850Z,2.60
2022-08-08T02:21:36.929Z,2.60
2022-08-08T02:24:14.976Z,3.10
2022-08-08T02:27:25.122Z,2.40
2022-08-08T02:29:59.149Z,2.60
2022-08-08T02:32:38.032Z,2.10
2022-08-08T02:35:28.328Z,2.50
2022-08-08T02:38:37.861Z,2.80
2022-08-08T02:42:03.446Z,2.20
2022-08-08T02:44:39.009Z,2.20
2022-08-08T02:47:41.319Z,2.30
2022-08-08T02:50:39.980Z,2.20
2022-08-08T02:53:42.406Z,3.10
2022-08-08T02:56:26.315Z,2.20
2022-08-08T02:59:57.515Z,2.40
2022-08-08T03:02:54.820Z,2.10
2022-08-08T03:08:26.310Z,2.50
2022-08-08T03:12:02.136Z,2.40
2022-08-08T03:15:56.989Z,2.30
2022-08-08T03:17:40.794Z,1.90
2022-08-08T03:20:15.567Z,2.10
2022-08-08T03:22:56.737Z,1.80
2022-08-08T03:25:35.532Z,2.10
2022-08-08T03:28:18.820Z,2.20
2022-08-08T03:30:49.301Z,2.30
2022-08-08T03:33:56.724Z,2.00
2022-08-08T03:36:30.439Z,1.80
2022-08-08T03:39:15.178Z,2.40
2022-08-08T03:42:28.361Z,2.00
2022-08-08T03:44:39.011Z,2.00
2022-08-08T03:47:20.008Z,1.70
2022-08-08T03:49:59.893Z,1.90
2022-08-08T03:52:35.417Z,2.00
2022-08-08T03:55:20.362Z,1.90
2022-08-08T03:58:33.575Z,1.70
2022-08-08T04:01:01.510Z,1.90
2022-08-08T04:03:58.459Z,1.90
2022-08-08T04:06:29.855Z,1.70
2022-08-08T04:09:10.213Z,1.60
2022-08-08T04:11:57.865Z,1.90
2022-08-08T04:14:35.675Z,2.00
2022-08-08T04:17:15.524Z,1.90
2022-08-08T04:19:52.054Z,2.00
2022-08-08T04:22:24.268Z,2.10
2022-08-08T04:24:54.181Z,2.20
2022-08-08T04:28:01.742Z,2.00
2022-08-08T04:30:18.020Z,1.90
2022-08-08T04:32:51.181Z,2.10
2022-08-08T04:35:23.153Z,1.80
2022-08-08T04:37:54.413Z,2.20
2022-08-08T04:40:26.992Z,1.60
2022-08-08T04:43:01.119Z,2.20
2022-08-08T04:45:36.741Z,2.30
2022-08-08T04:48:06.690Z,2.00
2022-08-08T04:50:44.481Z,1.90
2022-08-08T04:54:27.124Z,2.00
2022-08-08T04:56:06.716Z,2.00
2022-08-08T04:58:36.217Z,2.00
2022-08-08T05:01:11.091Z,2.00
2022-08-08T05:04:10.001Z,1.60
2022-08-08T05:06:36.487Z,1.80
2022-08-08T05:09:08.473Z,2.00
2022-08-08T05:11:40.692Z,1.50
2022-08-08T05:14:12.935Z,1.80
2022-08-08T05:16:51.536Z,1.80
2022-08-08T05:20:10.532Z,2.10
2022-08-08T05:22:17.620Z,1.80
2022-08-08T05:24:49.409Z,1.90
2022-08-08T05:27:21.558Z,1.90
2022-08-08T05:29:52.164Z,1.80
2022-08-08T05:32:27.381Z,2.70
2022-08-08T05:35:05.151Z,2.30
2022-08-08T05:37:52.800Z,2.00
2022-08-08T05:40:28.279Z,2.00
2022-08-08T05:43:17.290Z,1.90
2022-08-08T05:46:10.092Z,1.90
2022-08-08T05:48:41.772Z,1.80
2022-08-08T05:51:13.452Z,2.00
2022-08-08T05:54:24.856Z,2.10
2022-08-08T05:56:42.522Z,1.60
2022-08-08T06:00:01.185Z,1.60
2022-08-08T06:02:43.681Z,1.80
2022-08-08T06:05:33.795Z,1.80
2022-08-08T06:08:09.898Z,1.70
2022-08-08T06:10:59.839Z,1.50
2022-08-08T06:13:35.872Z,2.10
2022-08-08T06:16:13.354Z,3.40
2022-08-08T06:19:16.240Z,3.30
2022-08-08T06:21:56.955Z,3.20
2022-08-08T06:24:36.256Z,2.20
2022-08-08T06:27:10.304Z,2.50
2022-08-08T06:30:07.266Z,2.40
2022-08-08T06:32:53.011Z,2.30
2022-08-08T06:36:08.001Z,2.30
2022-08-08T06:38:19.582Z,3.10
2022-08-08T06:40:54.425Z,1.80
2022-08-08T06:43:34.064Z,2.00
2022-08-08T06:46:09.071Z,1.90
2022-08-08T06:48:42.608Z,2.00
2022-08-08T06:51:14.225Z,2.10
2022-08-08T06:53:50.987Z,2.00
2022-08-08T06:56:26.504Z,2.10
2022-08-08T06:58:55.005Z,2.00
2022-08-08T07:02:16.625Z,1.90
2022-08-08T07:04:37.476Z,2.00
2022-08-08T07:07:12.626Z,1.80
2022-08-08T07:10:07.985Z,1.50
2022-08-08T07:12:47.996Z,1.50
2022-08-08T07:16:04.863Z,1.50
2022-08-08T07:18:40.538Z,1.50
2022-08-08T07:21:18.964Z,2.10
2022-08-08T07:24:09.620Z,1.40
2022-08-08T07:26:55.360Z,1.60
2022-08-08T07:30:00.291Z,1.80
2022-08-08T07:32:17.104Z,1.80
2022-08-08T07:35:01.367Z,1.80
2022-08-08T07:37:49.547Z,2.30
2022-08-08T07:40:36.393Z,1.60
2022-08-08T07:43:11.605Z,2.50
2022-08-08T07:46:05.366Z,2.50
2022-08-08T07:48:35.933Z,1.70
2022-08-08T07:51:07.385Z,2.00
2022-08-08T07:54:26.877Z,1.60
2022-08-08T07:57:36.241Z,1.70
2022-08-08T08:00:13.419Z,1.70
2022-08-08T08:05:40.633Z,1.50
2022-08-08T08:08:18.889Z,1.50
2022-08-08T08:10:58.383Z,1.60
2022-08-08T08:14:07.396Z,1.70
2022-08-08T08:16:48.702Z,1.30
2022-08-08T08:19:21.235Z,1.70
2022-08-08T08:21:58.259Z,2.00
2022-08-08T08:24:46.650Z,1.70
2022-08-08T08:27:17.747Z,1.70
2022-08-08T08:29:51.066Z,1.50
2022-08-08T08:32:31.996Z,1.50
2022-08-08T08:35:07.274Z,1.50
2022-08-08T08:37:59.435Z,1.60
2022-08-08T08:40:26.001Z,1.70
2022-08-08T08:42:56.200Z,1.70
2022-08-08T08:45:26.361Z,1.50
2022-08-08T08:48:01.257Z,1.50
2022-08-08T08:50:35.587Z,1.30
2022-08-08T08:53:54.141Z,1.70
2022-08-08T08:56:07.905Z,2.30
2022-08-08T08:58:42.935Z,1.20
2022-08-08T09:01:15.478Z,1.40
2022-08-08T09:03:51.485Z,1.90
2022-08-08T09:06:36.809Z,1.60
2022-08-08T09:09:26.634Z,1.30
2022-08-08T09:12:11.697Z,1.70
2022-08-08T09:14:47.581Z,1.80
2022-08-08T09:17:19.624Z,1.60
2022-08-08T09:22:02.430Z,1.90
2022-08-08T09:22:55.228Z,1.70
2022-08-08T09:25:36.207Z,1.80
2022-08-08T09:28:30.793Z,2.60
2022-08-08T09:31:13.761Z,2.20
2022-08-08T09:34:14.686Z,1.70
2022-08-08T09:36:39.858Z,2.10
2022-08-08T09:39:21.954Z,1.60
2022-08-08T09:42:20.193Z,2.10
2022-08-08T09:45:15.476Z,1.70
2022-08-08T09:48:04.506Z,1.90
2022-08-08T09:50:34.907Z,1.70
2022-08-08T09:53:23.882Z,1.70
2022-08-08T09:56:05.369Z,2.10
2022-08-08T09:58:44.531Z,2.00
2022-08-08T10:01:58.244Z,1.60
2022-08-08T10:04:35.607Z,1.80
2022-08-08T10:07:07.524Z,2.00
2022-08-08T10:10:00.149Z,2.10
2022-08-08T10:12:53.994Z,1.70
2022-08-08T10:15:29.287Z,1.90
2022-08-08T10:18:10.086Z,1.90
2022-08-08T10:20:57.409Z,2.20
2022-08-08T10:23:56.122Z,1.80
2022-08-08T10:26:52.118Z,1.80
2022-08-08T10:29:43.893Z,2.00
2022-08-08T10:32:35.994Z,1.80
2022-08-08T10:36:08.801Z,1.80
2022-08-08T10:38:16.355Z,1.70
2022-08-08T10:40:45.983Z,2.30
2022-08-08T10:43:14.587Z,1.90
2022-08-08T10:45:56.800Z,2.00
2022-08-08T10:48:58.462Z,1.40
2022-08-08T10:51:47.322Z,1.70
2022-08-08T10:54:20.991Z,1.80
2022-08-08T10:57:03.847Z,1.90
2022-08-08T10:59:39.642Z,1.60
2022-08-08T11:02:09.674Z,1.60
2022-08-08T11:04:53.322Z,1.70
2022-08-08T11:08:37.345Z,1.50
2022-08-08T11:10:41.349Z,2.30
2022-08-08T11:13:29.879Z,1.90
2022-08-08T11:16:07.381Z,1.90
2022-08-08T11:18:37.071Z,1.70
2022-08-08T11:21:08.834Z,2.00
2022-08-08T11:23:42.519Z,1.90
2022-08-08T11:26:19.428Z,2.10
2022-08-08T11:28:51.402Z,1.80
2022-08-08T11:31:20.891Z,1.90
2022-08-08T11:34:03.083Z,2.10
2022-08-08T11:36:36.412Z,2.30
2022-08-08T11:39:12.789Z,2.70
2022-08-08T11:41:43.308Z,2.10
2022-08-08T11:44:14.999Z,2.20
2022-08-08T11:46:45.715Z,2.20
2022-08-08T11:49:21.317Z,2.30
2022-08-08T11:51:53.856Z,2.40
2022-08-08T11:54:38.482Z,2.30
2022-08-08T12:00:02.890Z,3.00
2022-08-08T12:02:55.631Z,2.40
2022-08-08T12:05:38.736Z,2.50
2022-08-08T12:08:07.595Z,3.20
2022-08-08T12:10:49.675Z,2.50
2022-08-08T12:13:37.875Z,2.60
2022-08-08T12:16:16.409Z,2.50
2022-08-08T12:18:53.411Z,2.50
2022-08-08T12:21:58.619Z,2.10
2022-08-08T12:24:21.126Z,2.20
2022-08-08T12:26:58.648Z,2.40
2022-08-08T12:29:40.097Z,2.60
2022-08-08T12:32:19.957Z,2.10
2022-08-08T12:35:04.224Z,2.30
2022-08-08T12:37:43.435Z,2.20
2022-08-08T12:40:44.449Z,2.00
2022-08-08T12:43:47.828Z,2.00
2022-08-08T12:46:26.209Z,2.20
2022-08-08T12:51:59.033Z,2.10
2022-08-08T12:54:36.554Z,1.90
2022-08-08T12:57:23.460Z,1.60
2022-08-08T13:00:04.641Z,1.80
2022-08-08T13:02:42.251Z,2.10
2022-08-08T13:05:27.084Z,1.60
2022-08-08T13:08:17.671Z,1.90
2022-08-08T13:10:56.275Z,1.80
2022-08-08T13:13:35.243Z,1.50
2022-08-08T13:16:26.455Z,1.50
2022-08-08T13:19:00.669Z,1.70
2022-08-08T13:21:53.647Z,1.40
2022-08-08T13:24:38.620Z,1.70
2022-08-08T13:27:12.545Z,1.70
2022-08-08T13:29:57.886Z,1.70
2022-08-08T13:32:29.003Z,1.70
2022-08-08T13:34:59.085Z,1.80
2022-08-08T13:38:04.608Z,1.60
2022-08-08T13:40:27.445Z,2.00
2022-08-08T13:42:57.659Z,2.30
2022-08-08T13:45:27.077Z,1.80
2022-08-08T13:48:02.098Z,2.20
2022-08-08T13:50:51.940Z,2.00
2022-08-08T13:53:27.364Z,2.20
2022-08-08T13:56:06.540Z,2.00
2022-08-08T13:58:57.914Z,2.00
2022-08-08T14:01:52.753Z,1.80
2022-08-08T14:04:24.417Z,2.20
2022-08-08T14:06:59.952Z,2.30
2022-08-08T14:10:05.828Z,1.90
2022-08-08T14:12:32.368Z,1.90
2022-08-08T14:15:03.617Z,1.90
2022-08-08T14:17:58.038Z,1.80
2022-08-08T14:20:56.112Z,1.60
2022-08-08T14:24:03.870Z,1.70
2022-08-08T14:26:22.359Z,1.90
2022-08-08T14:28:58.946Z,2.00
2022-08-08T14:32:05.962Z,1.50
2022-08-08T14:34:19.133Z,1.80
2022-08-08T14:36:54.593Z,1.80
2022-08-08T14:39:24.591Z,1.80
2022-08-08T14:42:07.485Z,1.60
2022-08-08T14:44:39.418Z,1.70
2022-08-08T14:47:17.194Z,1.70
2022-08-08T14:52:46.665Z,1.70
2022-08-08T14:55:22.502Z,1.80
2022-08-08T14:58:11.622Z,1.60
2022-08-08T15:00:45.534Z,1.80
2022-08-08T15:03:17.389Z,1.90
2022-08-08T15:05:53.301Z,1.60
2022-08-08T15:08:34.296Z,1.70
2022-08-08T15:11:06.306Z,1.70
2022-08-08T15:13:41.047Z,1.60
2022-08-08T15:17:17.145Z,1.80
2022-08-08T15:19:46.074Z,1.30
2022-08-08T15:22:17.948Z,2.00
2022-08-08T15:24:52.207Z,1.80
2022-08-08T15:28:03.312Z,1.90
2022-08-08T15:30:12.677Z,1.90
2022-08-08T15:32:43.185Z,2.00
2022-08-08T15:35:11.992Z,1.60
2022-08-08T15:37:44.824Z,1.60
2022-08-08T15:40:15.282Z,1.90
2022-08-08T15:42:47.403Z,1.50
2022-08-08T15:45:16.129Z,2.20
2022-08-08T15:48:05.469Z,1.70
2022-08-08T15:50:52.401Z,1.70
2022-08-08T15:53:22.407Z,2.00
2022-08-08T15:55:50.813Z,1.80
2022-08-08T15:58:19.469Z,1.80
2022-08-08T16:00:56.918Z,1.90
2022-08-08T16:03:25.544Z,1.80
2022-08-08T16:06:01.794Z,1.80
2022-08-08T16:08:30.857Z,2.10
2022-08-08T16:13:09.377Z,2.10
2022-08-08T16:13:49.292Z,1.80
2022-08-08T16:16:22.111Z,2.60
2022-08-08T16:18:53.453Z,1.90
2022-08-08T16:21:32.080Z,2.10
2022-08-08T16:24:10.103Z,2.00
2022-08-08T16:26:40.446Z,2.20
2022-08-08T16:29:17.837Z,2.10
2022-08-08T16:31:52.360Z,2.40
2022-08-08T16:34:21.900Z,2.00
2022-08-08T16:36:53.193Z,2.00
2022-08-08T16:39:59.871Z,2.30
2022-08-08T16:42:17.686Z,2.20
2022-08-08T16:44:54.732Z,2.40
2022-08-08T16:47:41.445Z,2.20
2022-08-08T16:50:15.254Z,2.10
2022-08-08T16:55:00.530Z,2.40
2022-08-08T16:55:55.232Z,2.60
2022-08-08T16:58:25.701Z,2.60
2022-08-08T17:00:57.934Z,2.70
2022-08-08T17:03:58.094Z,2.80
2022-08-08T17:06:37.008Z,2.40
2022-08-08T17:09:06.676Z,2.90
2022-08-08T17:11:48.258Z,2.50
2022-08-08T17:14:19.446Z,2.40
2022-08-08T17:16:51.953Z,2.60
2022-08-08T17:19:28.798Z,2.40
2022-08-08T17:22:01.327Z,2.60
2022-08-08T17:24:31.784Z,2.60
2022-08-08T17:27:02.044Z,2.10
2022-08-08T17:29:33.650Z,2.60
2022-08-08T17:32:06.013Z,2.20
2022-08-08T17:34:54.183Z,2.50
2022-08-08T17:37:27.629Z,2.50
2022-08-08T17:40:10.617Z,2.50
2022-08-08T17:42:50.430Z,2.20
2022-08-08T17:45:23.180Z,2.40
2022-08-08T17:47:54.893Z,2.30
2022-08-08T17:50:25.043Z,2.50
2022-08-08T17:52:54.140Z,2.30
2022-08-08T17:56:05.650Z,2.70
2022-08-08T17:58:16.040Z,2.70
2022-08-08T18:00:47.596Z,2.60
2022-08-08T18:03:25.846Z,2.60
2022-08-08T18:05:54.636Z,2.80
2022-08-08T18:08:24.549Z,2.60
2022-08-08T18:11:17.062Z,2.40
2022-08-08T18:13:47.177Z,3.00
2022-08-08T18:16:20.747Z,2.70
2022-08-08T18:18:57.279Z,2.40
2022-08-08T18:22:00.170Z,2.60
2022-08-08T18:24:22.021Z,3.10
2022-08-08T18:29:33.523Z,3.10
2022-08-08T18:32:05.484Z,2.90
2022-08-08T18:34:37.674Z,2.50
2022-08-08T18:37:09.615Z,2.50
2022-08-08T18:39:41.125Z,2.70
2022-08-08T18:42:16.619Z,2.90
2022-08-08T18:44:52.961Z,2.60
2022-08-08T18:47:33.560Z,2.60
2022-08-08T18:50:03.161Z,2.80
2022-08-08T18:52:34.811Z,2.90
2022-08-08T18:55:09.599Z,2.70
2022-08-08T18:57:44.927Z,3.00
2022-08-08T19:00:20.914Z,2.90
2022-08-08T19:02:55.205Z,3.10
2022-08-08T19:05:32.103Z,3.00
2022-08-08T19:08:24.618Z,2.70
2022-08-08T19:11:01.335Z,2.60
2022-08-08T19:13:52.656Z,2.90
2022-08-08T19:16:23.525Z,2.70
